Time;durP1;ratioP1;P1;durP2;ratioP2;P2;SDS_P1;SDS_P2;PMS_P1;PMS_P2;Temp;Humidity;BMP_temperature;BMP_pressure;BME280_temperature;BME280_humidity;BME280_pressure;Samples;Min_cycle;Max_cycle;Signal;HPM_P1;HPM_P2
2023/09/21 00:01:06;;;;;;;7.68;2.50;;;18.00;99.90;;;;;;5004510;28;20803;-72
2023/09/21 00:03:36;;;;;;;6.55;2.25;;;17.90;99.90;;;;;;5018219;28;20425;-72
2023/09/21 00:06:03;;;;;;;5.60;2.35;;;17.80;99.90;;;;;;5020302;28;20427;-72
2023/09/21 00:08:30;;;;;;;5.28;2.30;;;17.90;99.90;;;;;;4991774;28;20837;-72
2023/09/21 00:10:58;;;;;;;5.65;2.40;;;17.90;99.90;;;;;;4994660;28;20423;-72
2023/09/21 00:13:28;;;;;;;5.03;2.30;;;17.90;99.90;;;;;;4999282;28;21641;-72
2023/09/21 00:15:55;;;;;;;6.23;2.63;;;17.90;99.90;;;;;;4979873;28;20521;-72
2023/09/21 00:18:21;;;;;;;6.57;2.40;;;17.90;99.90;;;;;;5001042;28;20772;-72
2023/09/21 00:20:55;;;;;;;5.90;2.38;;;18.00;99.90;;;;;;5009152;28;20431;-72
2023/09/21 00:23:23;;;;;;;5.88;2.20;;;18.00;99.90;;;;;;4983167;28;20464;-72
2023/09/21 00:26:01;;;;;;;4.70;2.17;;;18.10;99.90;;;;;;4997405;28;20487;-72
2023/09/21 00:28:28;;;;;;;3.63;2.17;;;18.10;99.90;;;;;;4996979;28;20421;-73
2023/09/21 00:30:57;;;;;;;5.90;2.13;;;18.20;99.90;;;;;;5010007;28;20431;-72
2023/09/21 00:33:29;;;;;;;4.63;2.40;;;18.30;99.90;;;;;;5047996;28;20440;-72
2023/09/21 00:35:59;;;;;;;6.60;2.40;;;18.10;99.90;;;;;;5000452;28;20429;-72
2023/09/21 00:38:26;;;;;;;4.15;2.17;;;18.30;99.90;;;;;;4963274;28;20484;-72
2023/09/21 00:41:00;;;;;;;4.63;2.30;;;18.40;99.90;;;;;;4975189;28;20437;-72
2023/09/21 00:43:27;;;;;;;6.22;2.13;;;18.20;99.90;;;;;;4991168;28;20429;-73
2023/09/21 00:45:54;;;;;;;4.63;2.13;;;18.40;99.90;;;;;;4992464;28;20759;-72
2023/09/21 00:48:25;;;;;;;4.78;2.25;;;18.20;99.90;;;;;;4961534;28;20417;-72
2023/09/21 00:50:53;;;;;;;4.07;2.15;;;18.30;99.90;;;;;;4979314;28;20413;-73
2023/09/21 00:53:21;;;;;;;4.80;2.20;;;18.40;99.90;;;;;;4977633;28;20421;-73
2023/09/21 00:55:53;;;;;;;6.55;2.60;;;18.40;99.90;;;;;;4998768;28;20500;-72
2023/09/21 00:58:23;;;;;;;4.88;2.28;;;18.30;99.90;;;;;;5008881;28;20415;-73
2023/09/21 01:00:50;;;;;;;4.55;2.33;;;18.20;99.90;;;;;;5001066;28;20502;-72
2023/09/21 01:03:17;;;;;;;8.18;2.40;;;18.30;99.90;;;;;;4966463;28;20407;-72
2023/09/21 01:05:45;;;;;;;4.63;2.13;;;18.20;99.90;;;;;;4992714;28;20472;-73
2023/09/21 01:08:16;;;;;;;3.92;2.28;;;18.60;99.90;;;;;;4985884;28;20428;-72
2023/09/21 01:10:45;;;;;;;6.00;2.05;;;18.30;99.90;;;;;;5036140;28;20829;-73
2023/09/21 01:13:12;;;;;;;5.13;2.28;;;18.60;99.90;;;;;;5026549;28;20509;-73
2023/09/21 01:15:45;;;;;;;6.20;2.20;;;18.40;99.90;;;;;;4998921;28;20838;-73
2023/09/21 01:18:11;;;;;;;6.13;2.40;;;18.40;99.90;;;;;;4994043;28;20431;-72
2023/09/21 01:20:37;;;;;;;4.90;2.28;;;18.80;99.90;;;;;;4997373;28;20749;-73
2023/09/21 01:23:29;;;;;;;5.90;2.40;;;18.50;99.90;;;;;;4982525;28;20413;-73
2023/09/21 01:25:55;;;;;;;3.15;2.00;;;18.60;99.90;;;;;;5001412;28;20491;-72
2023/09/21 01:28:22;;;;;;;5.60;2.40;;;18.70;99.90;;;;;;4993590;28;20976;-72
2023/09/21 01:30:49;;;;;;;4.80;2.28;;;18.80;99.90;;;;;;5010612;28;20420;-72
2023/09/21 01:33:15;;;;;;;4.00;2.30;;;18.50;99.90;;;;;;4995321;28;20415;-72
2023/09/21 01:35:45;;;;;;;4.32;2.15;;;18.40;99.90;;;;;;5011920;28;20500;-72
2023/09/21 01:38:12;;;;;;;6.10;2.28;;;18.60;99.90;;;;;;4993433;28;20925;-72
2023/09/21 01:40:39;;;;;;;3.78;2.20;;;18.20;99.90;;;;;;4985820;28;20401;-72
2023/09/21 01:43:06;;;;;;;4.18;2.30;;;18.20;99.90;;;;;;4996850;28;20426;-72
2023/09/21 01:45:33;;;;;;;4.53;2.20;;;18.20;99.90;;;;;;5062883;28;20492;-72
2023/09/21 01:48:00;;;;;;;5.63;2.28;;;18.30;99.90;;;;;;4997686;28;20791;-73
2023/09/21 01:50:28;;;;;;;4.22;2.30;;;18.00;99.90;;;;;;4995424;28;20500;-73
2023/09/21 01:52:57;;;;;;;5.72;2.40;;;18.30;99.90;;;;;;4980983;28;20440;-72
2023/09/21 01:55:23;;;;;;;5.35;2.40;;;18.20;99.90;;;;;;4988013;28;20513;-72
2023/09/21 01:57:48;;;;;;;8.02;2.38;;;18.40;99.90;;;;;;4986441;28;20489;-72
2023/09/21 02:00:25;;;;;;;4.38;2.17;;;18.40;99.90;;;;;;5007610;28;20438;-79
2023/09/21 02:02:52;;;;;;;6.47;2.30;;;18.40;99.90;;;;;;5006176;28;20939;-79
2023/09/21 02:05:18;;;;;;;4.30;2.28;;;18.40;99.90;;;;;;4997462;28;20432;-79
2023/09/21 02:07:45;;;;;;;7.65;2.70;;;18.50;99.90;;;;;;5005805;28;20558;-79
2023/09/21 02:10:10;;;;;;;5.65;2.28;;;18.40;99.90;;;;;;4983080;28;21098;-79
2023/09/21 02:12:38;;;;;;;4.38;2.50;;;18.30;99.90;;;;;;5006662;28;20424;-79
2023/09/21 02:15:12;;;;;;;4.55;2.20;;;18.60;99.90;;;;;;5019785;28;20430;-79
2023/09/21 02:17:40;;;;;;;5.15;2.50;;;18.40;99.90;;;;;;5003893;28;20416;-79
2023/09/21 02:20:16;;;;;;;4.90;2.40;;;18.20;99.90;;;;;;4995681;28;20406;-79
2023/09/21 02:22:47;;;;;;;4.95;2.80;;;18.50;99.90;;;;;;5020096;28;20413;-79
2023/09/21 02:25:13;;;;;;;7.28;2.58;;;18.80;99.90;;;;;;4996429;28;20436;-79
2023/09/21 02:27:47;;;;;;;5.68;2.35;;;18.60;99.90;;;;;;4979316;28;20426;-79
2023/09/21 02:30:17;;;;;;;5.72;2.40;;;18.50;99.90;;;;;;5005995;28;20483;-79
2023/09/21 02:32:50;;;;;;;5.22;2.40;;;18.50;99.90;;;;;;4995872;28;20409;-79
2023/09/21 02:35:27;;;;;;;4.43;2.30;;;18.50;99.90;;;;;;5009659;28;20508;-79
2023/09/21 02:37:55;;;;;;;4.40;2.17;;;18.40;99.90;;;;;;4990090;28;20474;-79
2023/09/21 02:40:22;;;;;;;10.32;2.60;;;18.30;99.90;;;;;;4997510;28;20515;-79
2023/09/21 02:42:50;;;;;;;5.57;2.30;;;18.50;99.90;;;;;;4992505;28;20413;-79
2023/09/21 02:45:20;;;;;;;6.07;2.50;;;18.30;99.90;;;;;;4981479;28;20446;-79
2023/09/21 02:47:47;;;;;;;4.82;2.40;;;18.50;99.90;;;;;;4990918;28;20445;-79
2023/09/21 02:50:14;;;;;;;4.72;2.25;;;18.50;99.90;;;;;;4998948;28;20487;-78
2023/09/21 02:52:49;;;;;;;3.47;2.17;;;18.60;99.90;;;;;;5005259;28;20501;-79
2023/09/21 02:55:20;;;;;;;4.15;2.10;;;18.40;99.90;;;;;;5016171;28;20434;-78
2023/09/21 02:57:47;;;;;;;5.43;2.07;;;18.50;99.90;;;;;;4989127;28;22607;-79
2023/09/21 03:02:59;;;;;;;5.05;2.30;;;18.40;99.90;;;;;;5002236;28;20430;-79
2023/09/21 03:05:25;;;;;;;5.50;2.38;;;18.50;99.90;;;;;;4989861;28;20425;-79
2023/09/21 03:07:51;;;;;;;7.93;2.57;;;18.40;99.90;;;;;;5006218;28;20518;-78
2023/09/21 03:10:18;;;;;;;4.95;2.15;;;18.30;99.90;;;;;;5018794;28;20446;-79
2023/09/21 03:12:48;;;;;;;8.30;2.85;;;18.40;99.90;;;;;;5006000;28;20420;-79
2023/09/21 03:15:14;;;;;;;5.90;2.20;;;18.20;99.90;;;;;;5015808;28;20819;-79
2023/09/21 03:17:43;;;;;;;4.55;2.30;;;18.40;99.90;;;;;;4992859;28;20476;-79
2023/09/21 03:20:11;;;;;;;4.03;2.38;;;18.50;99.90;;;;;;5009613;28;20756;-79
2023/09/21 03:22:38;;;;;;;5.13;2.17;;;18.70;99.90;;;;;;5008210;28;20411;-80
2023/09/21 03:25:11;;;;;;;5.93;2.50;;;18.70;99.90;;;;;;5040598;28;20822;-79
2023/09/21 03:27:40;;;;;;;5.38;2.28;;;18.60;99.90;;;;;;4979734;28;20425;-80
2023/09/21 03:30:10;;;;;;;5.13;2.40;;;18.20;99.90;;;;;;4976384;28;20423;-79
2023/09/21 03:32:38;;;;;;;3.60;2.22;;;18.60;99.90;;;;;;4996363;28;20825;-80
2023/09/21 03:35:06;;;;;;;8.10;2.60;;;18.70;99.90;;;;;;4979033;28;20430;-79
2023/09/21 03:37:32;;;;;;;5.80;2.30;;;18.60;99.90;;;;;;4994232;28;20461;-79
2023/09/21 03:39:58;;;;;;;5.03;2.33;;;18.50;99.90;;;;;;4973422;28;20403;-79
2023/09/21 03:42:24;;;;;;;3.70;2.07;;;18.60;99.90;;;;;;4997609;28;20952;-79
2023/09/21 03:44:50;;;;;;;6.05;2.40;;;18.70;99.90;;;;;;5044585;28;20495;-79
2023/09/21 03:47:19;;;;;;;4.68;2.10;;;18.40;99.90;;;;;;5002766;28;20509;-80
2023/09/21 03:49:44;;;;;;;5.60;2.42;;;18.60;99.90;;;;;;5005819;28;20420;-79
2023/09/21 03:52:15;;;;;;;4.18;2.10;;;18.40;99.90;;;;;;4993932;28;20425;-79
2023/09/21 03:54:42;;;;;;;4.25;2.25;;;18.40;99.90;;;;;;4972825;28;20894;-79
2023/09/21 03:57:11;;;;;;;4.90;2.40;;;18.50;99.90;;;;;;5012087;28;20424;-78
2023/09/21 03:59:37;;;;;;;5.15;2.25;;;18.50;99.90;;;;;;5009761;28;20426;-79
2023/09/21 04:02:03;;;;;;;6.38;2.30;;;18.40;99.90;;;;;;5013782;28;20781;-79
2023/09/21 04:04:30;;;;;;;4.55;2.30;;;18.80;99.90;;;;;;4998041;28;20409;-80
2023/09/21 04:06:56;;;;;;;4.50;2.20;;;18.60;99.90;;;;;;4982026;28;20432;-79
2023/09/21 04:09:22;;;;;;;5.35;2.20;;;18.30;99.90;;;;;;4963442;28;20430;-79
2023/09/21 04:11:48;;;;;;;6.18;2.40;;;18.50;99.90;;;;;;4996231;28;20414;-79
2023/09/21 04:14:13;;;;;;;5.88;2.42;;;18.50;99.90;;;;;;5080878;28;20440;-78
2023/09/21 04:16:39;;;;;;;4.80;2.10;;;18.50;99.90;;;;;;5041092;28;20426;-79
2023/09/21 04:19:10;;;;;;;5.90;2.40;;;18.70;99.90;;;;;;5030564;28;20420;-79
2023/09/21 04:21:36;;;;;;;3.90;2.20;;;18.50;99.90;;;;;;4974130;28;20405;-79
2023/09/21 04:24:02;;;;;;;4.70;2.10;;;18.50;99.90;;;;;;5016250;28;20892;-79
2023/09/21 04:26:29;;;;;;;6.33;2.27;;;18.50;99.90;;;;;;5024687;28;20739;-79
2023/09/21 04:28:55;;;;;;;5.35;2.22;;;18.30;99.90;;;;;;4995681;28;20972;-80
2023/09/21 04:31:21;;;;;;;5.57;2.35;;;18.30;99.90;;;;;;5035404;28;20421;-78
2023/09/21 04:33:47;;;;;;;4.32;1.90;;;18.40;99.90;;;;;;5016769;28;20477;-79
2023/09/21 04:36:13;;;;;;;6.28;2.47;;;18.50;99.90;;;;;;5026294;28;20507;-80
2023/09/21 04:38:39;;;;;;;4.45;2.30;;;18.20;99.90;;;;;;5002383;28;20424;-80
2023/09/21 04:41:05;;;;;;;3.78;2.10;;;18.30;99.90;;;;;;4981638;28;20921;-80
2023/09/21 04:43:32;;;;;;;6.07;2.27;;;18.50;99.90;;;;;;5035565;28;20423;-80
2023/09/21 04:46:03;;;;;;;4.57;2.35;;;18.30;99.90;;;;;;5030612;28;20403;-79
2023/09/21 04:48:30;;;;;;;4.53;2.25;;;18.20;99.90;;;;;;4985250;28;20766;-79
2023/09/21 04:50:56;;;;;;;3.33;2.10;;;18.30;99.90;;;;;;4994489;28;20410;-80
2023/09/21 04:53:22;;;;;;;4.30;2.00;;;18.30;99.90;;;;;;5015764;28;20408;-79
2023/09/21 04:55:47;;;;;;;5.07;2.40;;;18.20;99.90;;;;;;4991354;28;20430;-79
2023/09/21 04:58:13;;;;;;;3.92;2.00;;;18.30;99.90;;;;;;5007626;28;20832;-79
2023/09/21 05:00:39;;;;;;;6.10;2.20;;;18.10;99.90;;;;;;5002796;28;20466;-80
2023/09/21 05:03:06;;;;;;;3.70;2.17;;;18.40;99.90;;;;;;5010221;28;20434;-79
2023/09/21 05:05:31;;;;;;;6.95;2.40;;;18.40;99.90;;;;;;5004490;28;20496;-79
2023/09/21 05:07:57;;;;;;;5.33;2.30;;;18.10;99.90;;;;;;4994504;28;20978;-79
2023/09/21 05:10:23;;;;;;;5.40;2.43;;;18.20;99.90;;;;;;5053236;28;20401;-79
2023/09/21 05:12:51;;;;;;;5.00;2.40;;;18.10;99.90;;;;;;4981666;28;20474;-79
2023/09/21 05:15:17;;;;;;;6.15;2.30;;;18.10;99.90;;;;;;5010660;28;20520;-78
2023/09/21 05:17:43;;;;;;;5.33;2.17;;;18.20;99.90;;;;;;4998370;28;20766;-79
2023/09/21 05:20:09;;;;;;;5.57;2.50;;;18.10;99.90;;;;;;5001504;28;20423;-79
2023/09/21 05:22:35;;;;;;;4.70;2.45;;;18.10;99.90;;;;;;4981374;28;20402;-79
2023/09/21 05:25:03;;;;;;;4.65;2.17;;;17.90;99.90;;;;;;5017939;28;20806;-80
2023/09/21 05:27:29;;;;;;;3.80;2.10;;;17.90;99.90;;;;;;4987564;28;20413;-79
2023/09/21 05:29:57;;;;;;;5.05;2.40;;;17.90;99.90;;;;;;4987492;28;20417;-78
2023/09/21 05:32:24;;;;;;;5.13;2.45;;;18.10;99.90;;;;;;4999005;28;20441;-78
2023/09/21 05:34:51;;;;;;;5.78;2.42;;;17.90;99.90;;;;;;4982889;28;20409;-78
2023/09/21 05:37:20;;;;;;;4.77;2.40;;;17.90;99.90;;;;;;4988177;28;20463;-78
2023/09/21 05:39:46;;;;;;;5.22;2.20;;;18.00;99.90;;;;;;4999816;28;20909;-78
2023/09/21 05:42:12;;;;;;;4.00;2.17;;;18.10;99.90;;;;;;4978088;28;20490;-78
2023/09/21 05:44:38;;;;;;;3.45;2.10;;;17.80;99.90;;;;;;4993064;28;20415;-78
2023/09/21 05:47:04;;;;;;;4.32;2.05;;;17.80;99.90;;;;;;4987033;28;20407;-77
2023/09/21 05:49:32;;;;;;;3.75;2.28;;;18.00;99.90;;;;;;5000497;28;20426;-78
2023/09/21 05:51:59;;;;;;;3.80;2.30;;;17.80;99.90;;;;;;5006693;28;20411;-78
2023/09/21 05:54:26;;;;;;;5.30;2.35;;;17.70;99.90;;;;;;5002242;28;20495;-78
2023/09/21 05:56:53;;;;;;;4.72;2.30;;;17.90;99.90;;;;;;5004046;28;20429;-79
2023/09/21 05:59:19;;;;;;;6.22;2.67;;;17.70;99.90;;;;;;5001949;28;20628;-79
2023/09/21 06:01:45;;;;;;;4.85;2.10;;;17.70;99.90;;;;;;4998400;28;20504;-80
2023/09/21 06:04:12;;;;;;;5.25;2.25;;;17.90;99.90;;;;;;4967571;28;20423;-79
2023/09/21 06:06:38;;;;;;;5.20;2.25;;;17.70;99.90;;;;;;5005062;28;20791;-80
2023/09/21 06:09:07;;;;;;;5.30;2.53;;;17.80;99.90;;;;;;5005045;28;20454;-79
2023/09/21 06:11:33;;;;;;;4.78;2.28;;;17.90;99.90;;;;;;5007263;28;20420;-79
2023/09/21 06:13:59;;;;;;;4.40;2.08;;;17.90;99.90;;;;;;4997417;28;20413;-79
2023/09/21 06:16:24;;;;;;;5.13;2.27;;;18.00;99.90;;;;;;5004773;28;20550;-78
2023/09/21 06:18:50;;;;;;;4.43;2.30;;;17.70;99.90;;;;;;4994533;28;20422;-79
2023/09/21 06:21:16;;;;;;;5.10;2.30;;;17.70;99.90;;;;;;4999362;28;20798;-79
2023/09/21 06:23:44;;;;;;;5.32;2.42;;;17.80;99.90;;;;;;4995863;28;20979;-79
2023/09/21 06:26:14;;;;;;;4.40;2.30;;;17.70;99.90;;;;;;4994460;28;20439;-79
2023/09/21 06:28:49;;;;;;;5.15;2.40;;;17.50;99.90;;;;;;4993311;28;20768;-79
2023/09/21 06:31:15;;;;;;;4.28;2.28;;;17.60;99.90;;;;;;4973077;28;20427;-80
2023/09/21 06:33:41;;;;;;;4.50;2.50;;;17.70;99.90;;;;;;4980405;28;20420;-80
2023/09/21 06:36:18;;;;;;;7.05;2.78;;;17.40;99.90;;;;;;4980478;28;20446;-80
2023/09/21 06:38:45;;;;;;;4.70;2.40;;;17.60;99.90;;;;;;4990640;28;20413;-79
2023/09/21 06:41:11;;;;;;;6.45;2.55;;;17.60;99.90;;;;;;4995268;28;20410;-79
2023/09/21 06:43:38;;;;;;;6.45;2.25;;;17.60;99.90;;;;;;4995964;28;20835;-80
2023/09/21 06:46:07;;;;;;;5.10;2.42;;;17.50;99.90;;;;;;5002526;28;20462;-73
2023/09/21 06:48:33;;;;;;;5.05;2.50;;;17.50;99.90;;;;;;4999605;28;20782;-73
2023/09/21 06:50:59;;;;;;;4.70;2.70;;;17.60;99.90;;;;;;4997554;28;20422;-74
2023/09/21 06:53:24;;;;;;;5.33;2.53;;;17.50;99.90;;;;;;4985357;28;20518;-73
2023/09/21 06:55:50;;;;;;;5.30;2.63;;;17.20;99.90;;;;;;5002219;28;20499;-74
2023/09/21 06:58:16;;;;;;;5.30;2.67;;;17.40;99.90;;;;;;5012291;28;20416;-74
2023/09/21 07:00:42;;;;;;;5.60;2.90;;;17.30;99.90;;;;;;4991682;28;20476;-73
2023/09/21 07:03:10;;;;;;;9.52;2.72;;;17.30;99.90;;;;;;4990763;28;20415;-74
2023/09/21 07:05:36;;;;;;;5.10;2.75;;;17.30;99.90;;;;;;4964693;28;20417;-73
2023/09/21 07:08:02;;;;;;;4.63;2.70;;;17.30;99.90;;;;;;4989389;28;20862;-73
2023/09/21 07:10:28;;;;;;;5.25;2.70;;;17.30;99.90;;;;;;4978475;28;20782;-73
2023/09/21 07:12:54;;;;;;;5.18;2.83;;;17.30;99.90;;;;;;4992796;28;20415;-73
2023/09/21 07:15:21;;;;;;;7.10;2.72;;;17.40;99.90;;;;;;4973362;28;20495;-73
2023/09/21 07:17:47;;;;;;;4.88;2.65;;;17.20;99.90;;;;;;5001722;28;20956;-73
2023/09/21 07:20:13;;;;;;;5.57;2.90;;;17.30;99.90;;;;;;4985937;28;20519;-73
2023/09/21 07:22:38;;;;;;;5.65;2.95;;;17.20;99.90;;;;;;4998176;28;20413;-73
2023/09/21 07:25:04;;;;;;;4.77;2.77;;;17.20;99.90;;;;;;4976078;28;20452;-73
2023/09/21 07:27:30;;;;;;;5.80;2.83;;;17.10;99.90;;;;;;4994245;28;20859;-72
2023/09/21 07:29:57;;;;;;;7.40;3.07;;;17.30;99.90;;;;;;4991434;28;20501;-73
2023/09/21 07:32:28;;;;;;;4.97;2.70;;;17.30;99.90;;;;;;5004188;28;20466;-73
2023/09/21 07:34:54;;;;;;;4.97;3.08;;;17.30;99.90;;;;;;4993975;28;20409;-73
2023/09/21 07:37:20;;;;;;;5.75;2.80;;;17.30;99.90;;;;;;4993167;28;20920;-73
2023/09/21 07:39:45;;;;;;;6.20;3.10;;;17.10;99.90;;;;;;4977772;28;20429;-73
2023/09/21 07:42:11;;;;;;;6.93;3.17;;;17.40;99.90;;;;;;4996127;28;20417;-73
2023/09/21 07:44:37;;;;;;;5.28;2.78;;;17.40;99.90;;;;;;4990418;28;20907;-73
2023/09/21 07:47:03;;;;;;;6.38;3.17;;;17.10;99.90;;;;;;4993211;28;20935;-74
2023/09/21 07:49:28;;;;;;;6.45;3.15;;;17.10;99.90;;;;;;4980091;28;20430;-74
2023/09/21 07:51:55;;;;;;;6.70;3.00;;;17.30;99.90;;;;;;5003689;28;20412;-74
2023/09/21 07:54:21;;;;;;;4.90;3.10;;;17.00;99.90;;;;;;4994736;28;20418;-74
2023/09/21 07:56:47;;;;;;;6.35;3.03;;;17.10;99.90;;;;;;4993455;28;20787;-73
2023/09/21 07:59:13;;;;;;;4.70;2.83;;;17.30;99.90;;;;;;4983705;28;20421;-74
2023/09/21 08:01:40;;;;;;;5.15;3.13;;;17.20;99.90;;;;;;4997777;28;21026;-74
2023/09/21 08:04:07;;;;;;;5.80;2.75;;;17.30;99.90;;;;;;4979236;28;20453;-74
2023/09/21 08:06:33;;;;;;;5.65;3.17;;;17.10;99.90;;;;;;4969797;28;20441;-74
2023/09/21 08:08:59;;;;;;;5.82;3.33;;;17.10;99.90;;;;;;4995534;28;20438;-74
2023/09/21 08:11:25;;;;;;;5.70;3.10;;;17.10;99.90;;;;;;4977419;28;20456;-74
2023/09/21 08:13:50;;;;;;;6.57;3.27;;;17.40;99.90;;;;;;4983321;28;20927;-74
2023/09/21 08:16:16;;;;;;;6.10;3.27;;;17.10;99.90;;;;;;4976982;28;20434;-74
2023/09/21 08:18:42;;;;;;;7.18;3.70;;;17.10;99.90;;;;;;4993587;28;20437;-74
2023/09/21 08:21:09;;;;;;;6.35;3.67;;;17.00;99.90;;;;;;5000319;28;20816;-74
2023/09/21 08:23:36;;;;;;;5.90;3.70;;;17.00;99.90;;;;;;4998024;28;20408;-73
2023/09/21 08:26:03;;;;;;;6.57;3.75;;;16.80;99.90;;;;;;4986010;28;20954;-74
2023/09/21 08:28:29;;;;;;;7.40;4.15;;;17.00;99.90;;;;;;4994194;28;20473;-74
2023/09/21 08:30:57;;;;;;;7.50;4.20;;;16.80;99.90;;;;;;4979261;28;20451;-74
2023/09/21 08:33:23;;;;;;;6.43;4.30;;;16.70;99.90;;;;;;4994732;28;20420;-75
2023/09/21 08:35:49;;;;;;;6.63;4.20;;;17.10;99.90;;;;;;4997559;28;20434;-74
2023/09/21 08:38:17;;;;;;;8.10;4.33;;;16.90;99.90;;;;;;5005747;28;20426;-74
2023/09/21 08:40:44;;;;;;;7.40;4.40;;;16.90;99.90;;;;;;4974083;28;20426;-74
2023/09/21 08:43:19;;;;;;;5.10;2.80;;;16.80;99.90;;;;;;4991172;28;20895;-74
2023/09/21 08:45:46;;;;;;;3.45;1.70;;;16.70;99.90;;;;;;4994465;28;20922;-74
2023/09/21 08:48:15;;;;;;;3.33;1.80;;;16.60;99.90;;;;;;5000796;28;20493;-74
2023/09/21 08:50:42;;;;;;;3.67;1.70;;;16.30;99.90;;;;;;4965321;28;20419;-74
2023/09/21 08:53:13;;;;;;;4.60;1.70;;;16.20;99.90;;;;;;4979042;28;20460;-74
2023/09/21 08:55:41;;;;;;;3.83;1.60;;;16.10;99.90;;;;;;4977724;28;20430;-74
2023/09/21 08:58:09;;;;;;;2.97;1.50;;;16.00;99.90;;;;;;4996954;28;20410;-74
2023/09/21 09:00:36;;;;;;;4.60;1.70;;;16.00;99.90;;;;;;4994463;28;20513;-74
2023/09/21 09:03:03;;;;;;;3.65;1.75;;;16.10;99.90;;;;;;4991049;28;20430;-73
2023/09/21 09:05:30;;;;;;;3.22;1.52;;;15.90;99.90;;;;;;4994506;28;20445;-74
2023/09/21 09:07:57;;;;;;;5.00;1.80;;;15.80;99.90;;;;;;4993168;28;20931;-74
2023/09/21 09:10:25;;;;;;;5.00;1.50;;;15.80;99.90;;;;;;4992783;28;20441;-74
2023/09/21 09:13:03;;;;;;;5.85;1.80;;;15.80;99.90;;;;;;4981726;28;20458;-74
2023/09/21 09:15:42;;;;;;;3.22;1.52;;;16.00;99.90;;;;;;4996307;28;20506;-74
2023/09/21 09:18:08;;;;;;;2.80;1.25;;;15.90;99.90;;;;;;4991773;28;20469;-75
2023/09/21 09:20:37;;;;;;;3.08;1.40;;;15.70;99.90;;;;;;4993967;28;20465;-75
2023/09/21 09:23:10;;;;;;;2.43;1.23;;;15.90;99.90;;;;;;4975107;28;20434;-75
2023/09/21 09:25:39;;;;;;;2.45;1.35;;;15.60;99.90;;;;;;4997078;28;20468;-75
2023/09/21 09:28:08;;;;;;;2.80;1.40;;;15.70;99.90;;;;;;4990646;28;20503;-75
2023/09/21 09:30:35;;;;;;;3.42;1.60;;;15.50;99.90;;;;;;4977265;28;20461;-76
2023/09/21 09:33:03;;;;;;;4.03;1.45;;;15.70;99.90;;;;;;4990201;28;20410;-76
2023/09/21 09:35:32;;;;;;;4.20;1.30;;;15.50;99.90;;;;;;4981509;28;20453;-75
2023/09/21 09:37:58;;;;;;;2.78;1.30;;;;;;;;;;4984430;28;20457;-77
2023/09/21 09:40:25;;;;;;;3.00;1.57;;;15.40;99.90;;;;;;4985527;28;20417;-76
2023/09/21 09:42:52;;;;;;;3.33;1.40;;;15.30;99.90;;;;;;4994194;28;20474;-75
2023/09/21 09:45:24;;;;;;;3.92;1.40;;;15.60;99.90;;;;;;4977574;28;20420;-75
2023/09/21 09:47:57;;;;;;;4.25;1.50;;;15.50;99.90;;;;;;4990370;28;20464;-76
2023/09/21 09:50:24;;;;;;;2.13;1.30;;;15.90;99.90;;;;;;4994278;28;20498;-75
2023/09/21 09:53:03;;;;;;;4.22;1.50;;;15.50;99.90;;;;;;4993868;28;20433;-75
2023/09/21 09:55:33;;;;;;;2.38;1.30;;;15.60;99.90;;;;;;4997730;28;20434;-75
2023/09/21 09:58:02;;;;;;;3.55;1.05;;;15.70;99.90;;;;;;5000763;28;20410;-75
2023/09/21 10:00:30;;;;;;;2.23;1.30;;;15.70;99.90;;;;;;4978430;28;20496;-75
2023/09/21 10:02:57;;;;;;;1.90;1.30;;;15.40;99.90;;;;;;4973031;28;20434;-75
2023/09/21 10:05:27;;;;;;;2.03;1.10;;;15.70;99.90;;;;;;4990440;28;20569;-76
2023/09/21 10:08:00;;;;;;;2.50;1.20;;;15.80;99.90;;;;;;4974205;28;20467;-74
2023/09/21 10:10:30;;;;;;;2.50;1.25;;;15.80;99.90;;;;;;4990869;28;20445;-75
2023/09/21 10:12:57;;;;;;;2.40;1.30;;;16.10;99.90;;;;;;4998337;28;20608;-75
2023/09/21 10:15:24;;;;;;;2.67;1.27;;;15.90;99.90;;;;;;4993867;28;20434;-75
2023/09/21 10:17:54;;;;;;;2.93;1.40;;;16.00;99.90;;;;;;4993475;28;20425;-75
2023/09/21 10:20:32;;;;;;;2.75;1.50;;;15.90;99.90;;;;;;4977914;28;20468;-75
2023/09/21 10:23:04;;;;;;;1.73;1.13;;;15.90;99.90;;;;;;4997250;28;20442;-75
2023/09/21 10:25:47;;;;;;;2.00;1.20;;;16.20;99.90;;;;;;4999645;28;20429;-75
2023/09/21 10:28:28;;;;;;;4.45;1.50;;;16.10;99.90;;;;;;4980876;28;20413;-75
2023/09/21 10:31:06;;;;;;;1.67;1.10;;;16.00;99.90;;;;;;4984005;28;20421;-75
2023/09/21 10:33:51;;;;;;;2.50;1.30;;;16.20;99.90;;;;;;4997173;28;20446;-75
2023/09/21 10:36:45;;;;;;;1.80;1.20;;;16.20;99.90;;;;;;4978557;28;20430;-75
2023/09/21 10:39:10;;;;;;;3.00;1.20;;;16.00;99.90;;;;;;4979934;28;20465;-75
2023/09/21 10:41:47;;;;;;;2.88;1.30;;;15.90;99.90;;;;;;4993844;28;20457;-75
2023/09/21 10:44:51;;;;;;;2.92;1.10;;;16.20;99.90;;;;;;4985662;28;20438;-75
2023/09/21 10:47:20;;;;;;;2.40;1.17;;;16.10;99.90;;;;;;4994686;28;20425;-75
2023/09/21 10:49:48;;;;;;;3.58;1.40;;;16.00;99.90;;;;;;5063569;28;20405;-75
2023/09/21 10:52:15;;;;;;;4.40;3.40;;;16.10;99.90;;;;;;4974446;28;20717;-75
2023/09/21 10:54:41;;;;;;;4.30;3.35;;;16.00;99.90;;;;;;5003842;28;20513;-75
2023/09/21 10:57:06;;;;;;;8.65;5.38;;;16.30;99.90;;;;;;4981514;28;20522;-76
2023/09/21 10:59:32;;;;;;;7.67;6.10;;;16.20;99.90;;;;;;4976273;28;20448;-75
2023/09/21 11:01:58;;;;;;;6.83;5.37;;;16.20;99.90;;;;;;4973328;28;20902;-75
2023/09/21 11:04:23;;;;;;;6.65;4.50;;;16.30;99.90;;;;;;4960209;28;20981;-76
2023/09/21 11:06:50;;;;;;;3.35;2.20;;;16.20;99.90;;;;;;4990481;28;20418;-75
2023/09/21 11:09:17;;;;;;;3.45;2.42;;;16.20;99.90;;;;;;4989863;28;20448;-75
2023/09/21 11:11:44;;;;;;;3.53;1.67;;;16.20;99.90;;;;;;4973420;28;20423;-75
2023/09/21 11:14:10;;;;;;;3.75;1.73;;;16.40;99.90;;;;;;4972598;28;20438;-75
2023/09/21 11:16:36;;;;;;;2.83;1.60;;;16.20;99.90;;;;;;4964492;28;20537;-75
2023/09/21 11:19:05;;;;;;;2.35;1.30;;;16.40;99.90;;;;;;4977422;28;20422;-74
2023/09/21 11:21:31;;;;;;;3.33;1.90;;;16.40;99.90;;;;;;4991446;28;20433;-75
2023/09/21 11:23:58;;;;;;;2.30;1.25;;;16.40;99.90;;;;;;4976291;28;20463;-75
2023/09/21 11:26:26;;;;;;;2.63;1.30;;;16.50;99.90;;;;;;4995887;28;21097;-75
2023/09/21 11:28:58;;;;;;;1.98;1.20;;;16.30;99.90;;;;;;4971924;28;20428;-75
2023/09/21 11:31:28;;;;;;;4.13;1.45;;;16.30;99.90;;;;;;5004755;28;22300;-75
2023/09/21 11:33:53;;;;;;;2.83;1.30;;;16.10;99.90;;;;;;5012383;28;20404;-75
2023/09/21 11:36:20;;;;;;;2.90;1.60;;;16.00;99.90;;;;;;4990489;28;20775;-75
2023/09/21 11:38:46;;;;;;;3.53;1.60;;;16.20;99.90;;;;;;5020495;28;20405;-75
2023/09/21 11:41:14;;;;;;;2.40;1.33;;;16.30;99.90;;;;;;4969924;28;20411;-76
2023/09/21 11:43:42;;;;;;;3.58;1.60;;;16.20;99.90;;;;;;4988922;28;20425;-76
2023/09/21 11:46:09;;;;;;;2.90;1.50;;;16.30;99.90;;;;;;4977675;28;20414;-76
2023/09/21 11:48:36;;;;;;;2.42;1.50;;;16.30;99.90;;;;;;4991330;28;20466;-75
2023/09/21 11:51:04;;;;;;;4.27;1.43;;;16.20;99.90;;;;;;4980748;28;20413;-75
2023/09/21 11:53:31;;;;;;;3.08;1.50;;;16.30;99.90;;;;;;4968445;28;20506;-75
2023/09/21 11:55:57;;;;;;;3.53;1.60;;;16.30;99.90;;;;;;5058108;28;20438;-74
2023/09/21 11:58:22;;;;;;;3.47;1.30;;;16.30;99.90;;;;;;4995644;28;20887;-75
2023/09/21 12:01:06;;;;;;;3.73;1.60;;;16.20;99.90;;;;;;4990176;28;20430;-75
2023/09/21 12:03:33;;;;;;;3.47;1.48;;;16.00;99.90;;;;;;4979299;28;20419;-75
2023/09/21 12:05:59;;;;;;;2.50;1.55;;;16.30;99.90;;;;;;4991094;28;20955;-75
2023/09/21 12:08:25;;;;;;;3.28;1.98;;;16.00;99.90;;;;;;5013270;28;20409;-75
2023/09/21 12:10:52;;;;;;;3.42;2.10;;;16.10;99.90;;;;;;5011221;28;20450;-74
2023/09/21 12:13:19;;;;;;;5.97;2.10;;;16.30;99.90;;;;;;5003452;28;20417;-74
2023/09/21 12:15:45;;;;;;;4.20;2.10;;;16.50;99.90;;;;;;5003307;28;20463;-75
2023/09/21 12:18:11;;;;;;;2.35;1.60;;;16.50;99.90;;;;;;4972203;28;20451;-75
2023/09/21 12:20:49;;;;;;;3.15;1.70;;;16.50;99.90;;;;;;5000060;28;20838;-75
2023/09/21 12:23:18;;;;;;;2.55;1.42;;;16.70;99.90;;;;;;4974265;28;20494;-75
2023/09/21 12:25:45;;;;;;;2.42;1.38;;;16.60;99.90;;;;;;4993775;28;20470;-74
2023/09/21 12:28:11;;;;;;;2.88;1.60;;;16.60;99.90;;;;;;4989208;28;20449;-75
2023/09/21 12:30:38;;;;;;;2.30;1.40;;;16.60;99.90;;;;;;4992235;28;20912;-75
2023/09/21 12:33:06;;;;;;;2.05;1.20;;;17.10;99.90;;;;;;4982550;28;20485;-75
2023/09/21 12:35:31;;;;;;;2.38;1.30;;;16.60;99.90;;;;;;4996391;28;20439;-75
2023/09/21 12:37:58;;;;;;;2.30;1.30;;;16.40;99.90;;;;;;4979146;28;20795;-76
2023/09/21 12:40:24;;;;;;;1.73;1.10;;;16.40;99.90;;;;;;4999562;28;20482;-77
2023/09/21 12:42:52;;;;;;;2.30;1.20;;;16.60;99.90;;;;;;5001284;28;20425;-76
2023/09/21 12:45:17;;;;;;;2.30;1.40;;;16.60;99.90;;;;;;4993170;28;20425;-75
2023/09/21 12:47:46;;;;;;;2.10;1.20;;;16.70;99.90;;;;;;4996691;28;20428;-76
2023/09/21 12:50:14;;;;;;;2.00;1.20;;;16.40;99.90;;;;;;4983738;28;20409;-76
2023/09/21 12:52:41;;;;;;;1.27;0.90;;;16.60;99.90;;;;;;4990949;28;20498;-76
2023/09/21 12:55:08;;;;;;;2.15;1.13;;;16.50;99.90;;;;;;4998158;28;20435;-75